createdAt,value
2019-05-09T00:03:38.245Z,96384.63
2019-05-09T00:07:43.908Z,96386.14
2019-05-09T00:11:48.885Z,96382.30
2019-05-09T00:15:54.282Z,96383.98
2019-05-09T00:20:03.673Z,96385.30
2019-05-09T00:24:08.502Z,96375.22
2019-05-09T00:28:13.725Z,96380.45
2019-05-09T00:32:28.994Z,96378.38
2019-05-09T00:36:33.882Z,96382.50
2019-05-09T00:40:52.355Z,96377.17
2019-05-09T00:44:53.335Z,96379.60
2019-05-09T00:48:59.903Z,96382.61
2019-05-09T00:53:04.778Z,96386.58
2019-05-09T00:57:13.631Z,96389.58
2019-05-09T01:01:17.888Z,96388.44
2019-05-09T01:05:23.942Z,96389.55
2019-05-09T01:09:29.010Z,96388.44
2019-05-09T01:13:34.329Z,96365.13
2019-05-09T01:17:39.263Z,96363.38
2019-05-09T01:21:44.163Z,96355.44
2019-05-09T01:25:49.033Z,96360.55
2019-05-09T01:29:53.919Z,96361.74
2019-05-09T01:34:00.448Z,96355.60
2019-05-09T01:38:05.407Z,96358.29
2019-05-09T01:42:10.293Z,96371.41
2019-05-09T01:46:15.177Z,96372.72
2019-05-09T01:50:20.061Z,96360.63
2019-05-09T01:54:26.396Z,96361.66
2019-05-09T01:58:34.188Z,96364.00
2019-05-09T02:02:40.460Z,96357.86
2019-05-09T02:06:45.421Z,96358.78
2019-05-09T02:10:50.548Z,96352.91
2019-05-09T02:14:59.733Z,96343.31
2019-05-09T02:19:06.259Z,96342.47
2019-05-09T02:23:11.147Z,96349.53
2019-05-09T02:27:16.027Z,96337.06
2019-05-09T02:31:20.913Z,96335.81
2019-05-09T02:35:31.472Z,96345.86
2019-05-09T02:39:32.386Z,96343.68
2019-05-09T02:43:38.972Z,96349.14
2019-05-09T02:47:44.030Z,96355.20
2019-05-09T02:51:49.021Z,96368.94
2019-05-09T02:55:53.881Z,96364.42
2019-05-09T03:00:08.715Z,96360.38
2019-05-09T03:04:12.745Z,96357.77
2019-05-09T03:08:19.233Z,96362.80
2019-05-09T03:12:34.436Z,96364.11
2019-05-09T03:16:30.797Z,96357.31
2019-05-09T03:20:40.277Z,96366.97
2019-05-09T03:24:48.334Z,96367.61
2019-05-09T03:28:53.384Z,96382.40
2019-05-09T03:32:59.717Z,96379.27
2019-05-09T03:37:04.738Z,96368.38
2019-05-09T03:41:09.629Z,96369.69
2019-05-09T03:45:18.098Z,96370.14
2019-05-09T03:49:24.518Z,96365.13
2019-05-09T03:53:29.406Z,96369.32
2019-05-09T03:57:37.357Z,96366.84
2019-05-09T04:01:42.270Z,96372.38
2019-05-09T04:05:58.303Z,96370.69
2019-05-09T04:09:53.725Z,96362.00
2019-05-09T04:14:00.250Z,96362.31
2019-05-09T04:18:05.134Z,96369.34
2019-05-09T04:22:10.018Z,96364.13
2019-05-09T04:26:17.609Z,96380.09
2019-05-09T04:30:22.711Z,96387.38
2019-05-09T04:34:27.695Z,96389.53
2019-05-09T04:38:32.561Z,96384.33
2019-05-09T04:42:42.791Z,96387.54
2019-05-09T04:46:44.037Z,96388.75
2019-05-09T04:50:48.910Z,96388.02
2019-05-09T04:54:54.066Z,96388.20
2019-05-09T04:58:58.956Z,96381.95
2019-05-09T05:03:03.852Z,96386.70
2019-05-09T05:07:09.321Z,96388.56
2019-05-09T05:11:14.208Z,96372.34
2019-05-09T05:15:20.539Z,96383.34
2019-05-09T05:19:28.566Z,96385.78
2019-05-09T05:23:49.994Z,96374.13
2019-05-09T05:27:54.883Z,96375.27
2019-05-09T05:32:02.382Z,96375.80
2019-05-09T05:36:15.142Z,96383.75
2019-05-09T05:40:20.040Z,96385.56
2019-05-09T05:44:24.932Z,96390.58
2019-05-09T05:48:31.473Z,96395.39
2019-05-09T05:52:37.554Z,96389.98
2019-05-09T05:56:42.554Z,96388.84
2019-05-09T06:00:48.132Z,96397.04
2019-05-09T06:04:53.023Z,96403.73
2019-05-09T06:08:58.122Z,96394.89
2019-05-09T06:13:03.078Z,96401.28
2019-05-09T06:17:09.057Z,96395.13
2019-05-09T06:21:13.959Z,96401.97
2019-05-09T06:25:21.059Z,96400.74
2019-05-09T06:29:28.677Z,96396.91
2019-05-09T06:33:32.793Z,96395.28
2019-05-09T06:37:38.761Z,96397.22
2019-05-09T06:41:43.665Z,96400.05
2019-05-09T06:46:02.400Z,96414.33
2019-05-09T06:50:11.633Z,96401.70
2019-05-09T06:54:17.430Z,96404.24
2019-05-09T06:58:32.711Z,96403.36
2019-05-09T07:02:39.253Z,96400.62
2019-05-09T07:06:48.111Z,96398.53
2019-05-09T07:10:52.395Z,96396.84
2019-05-09T07:14:58.418Z,96401.35
2019-05-09T07:19:03.258Z,96400.23
2019-05-09T07:23:09.079Z,96400.12
2019-05-09T07:27:14.121Z,96394.80
2019-05-09T07:31:24.167Z,96397.09
2019-05-09T07:35:29.060Z,96386.42
2019-05-09T07:39:33.943Z,96392.54
2019-05-09T07:43:38.843Z,96390.12
2019-05-09T07:47:43.739Z,96404.77
2019-05-09T07:51:48.641Z,96398.20
2019-05-09T07:55:53.533Z,96401.52
2019-05-09T07:59:58.601Z,96392.23
2019-05-09T08:04:03.558Z,96384.03
2019-05-09T08:08:11.501Z,96389.58
2019-05-09T08:12:17.939Z,96380.60
2019-05-09T08:16:22.979Z,96379.95
2019-05-09T08:20:28.062Z,96372.81
2019-05-09T08:24:32.944Z,96368.55
2019-05-09T08:28:38.887Z,96361.30
2019-05-09T08:32:45.200Z,96360.33
2019-05-09T08:36:50.104Z,96366.54
2019-05-09T08:41:08.998Z,96354.48
2019-05-09T08:45:27.392Z,96351.39
2019-05-09T08:49:24.720Z,96360.36
2019-05-09T08:53:29.611Z,96357.21
2019-05-09T08:57:34.506Z,96340.62
2019-05-09T09:02:04.694Z,96347.91
2019-05-09T09:05:48.388Z,96344.45
2019-05-09T09:09:52.642Z,96348.40
2019-05-09T09:13:57.878Z,96341.92
2019-05-09T09:18:02.873Z,96348.52
2019-05-09T09:22:08.816Z,96338.33
2019-05-09T09:26:14.100Z,96346.89
2019-05-09T09:30:24.764Z,96345.77
2019-05-09T09:34:27.748Z,96343.11
2019-05-09T09:38:32.628Z,96343.78
2019-05-09T09:42:39.615Z,96337.56
2019-05-09T09:46:44.109Z,96340.69
2019-05-09T09:50:51.615Z,96343.31
2019-05-09T09:54:58.081Z,96331.64
2019-05-09T09:59:21.594Z,96332.24
2019-05-09T10:03:26.504Z,96335.20
2019-05-09T10:07:31.380Z,96328.24
2019-05-09T10:11:36.295Z,96324.27
2019-05-09T10:15:48.663Z,96319.83
2019-05-09T10:19:55.203Z,96321.58
2019-05-09T10:24:00.083Z,96323.83
2019-05-09T10:28:04.972Z,96316.56
2019-05-09T10:32:11.577Z,96318.52
2019-05-09T10:36:16.548Z,96315.76
2019-05-09T10:40:22.729Z,96310.95
2019-05-09T10:44:31.952Z,96314.34
2019-05-09T10:48:38.622Z,96304.60
2019-05-09T10:52:43.521Z,96307.38
2019-05-09T10:56:49.490Z,96304.78
2019-05-09T11:00:54.388Z,96308.80
2019-05-09T11:04:59.287Z,96308.56
2019-05-09T11:09:08.614Z,96308.00
2019-05-09T11:13:13.217Z,96305.42
2019-05-09T11:17:21.661Z,96300.06
2019-05-09T11:21:24.704Z,96294.77
2019-05-09T11:25:29.599Z,96297.30
2019-05-09T11:29:34.501Z,96293.09
2019-05-09T11:33:39.382Z,96288.59
2019-05-09T11:37:44.283Z,96293.02
2019-05-09T11:41:49.178Z,96274.70
2019-05-09T11:45:54.076Z,96282.81
2019-05-09T11:49:58.975Z,96281.87
2019-05-09T11:54:03.855Z,96281.14
2019-05-09T11:58:09.923Z,96278.62
2019-05-09T12:02:14.817Z,96275.52
2019-05-09T12:06:20.522Z,96265.86
2019-05-09T12:10:25.597Z,96270.16
2019-05-09T12:14:30.485Z,96272.09
2019-05-09T12:18:37.674Z,96269.39
2019-05-09T12:22:43.045Z,96272.39
2019-05-09T12:26:48.349Z,96266.30
2019-05-09T12:30:53.417Z,96270.70
2019-05-09T12:34:58.310Z,96267.38
2019-05-09T12:39:03.882Z,96276.33
2019-05-09T12:43:09.221Z,96270.21
2019-05-09T12:47:14.289Z,96268.52
2019-05-09T12:51:19.118Z,96277.12
2019-05-09T12:55:24.018Z,96267.67
2019-05-09T12:59:28.910Z,96270.83
2019-05-09T13:03:33.807Z,96277.51
2019-05-09T13:07:42.221Z,96274.19
2019-05-09T13:11:48.256Z,96272.64
2019-05-09T13:16:03.603Z,96279.95
2019-05-09T13:20:10.495Z,96276.28
2019-05-09T13:24:19.262Z,96271.52
2019-05-09T13:28:21.988Z,96272.09
2019-05-09T13:32:28.025Z,96268.27
2019-05-09T13:36:33.223Z,96266.37
2019-05-09T13:40:38.124Z,96267.70
2019-05-09T13:44:43.098Z,96268.54
2019-05-09T13:49:05.827Z,96262.17
2019-05-09T13:52:55.567Z,96276.77
2019-05-09T13:57:01.552Z,96264.58
2019-05-09T14:01:07.885Z,96269.34
2019-05-09T14:05:12.856Z,96271.27
2019-05-09T14:09:20.008Z,96278.25
2019-05-09T14:13:24.354Z,96278.73
2019-05-09T14:17:44.797Z,96276.09
2019-05-09T14:21:35.846Z,96285.66
2019-05-09T14:25:40.750Z,96281.94
2019-05-09T14:29:45.673Z,96287.32
2019-05-09T14:33:50.544Z,96293.66
2019-05-09T14:37:55.434Z,96296.39
2019-05-09T14:42:00.333Z,96293.37
2019-05-09T14:46:05.229Z,96297.30
2019-05-09T14:50:10.973Z,96308.12
2019-05-09T14:54:15.869Z,96305.37
2019-05-09T14:58:21.697Z,96314.56
2019-05-09T15:02:26.587Z,96310.39
2019-05-09T15:06:31.489Z,96319.20
2019-05-09T15:10:38.425Z,96326.89
2019-05-09T15:14:42.980Z,96332.06
2019-05-09T15:18:48.649Z,96339.45
2019-05-09T15:22:53.755Z,96346.34
2019-05-09T15:26:58.653Z,96353.28
2019-05-09T15:31:03.548Z,96353.16
2019-05-09T15:35:09.281Z,96364.97
2019-05-09T15:39:14.184Z,96367.52
2019-05-09T15:43:19.076Z,96373.03
2019-05-09T15:47:31.030Z,96377.91
2019-05-09T15:51:35.926Z,96389.86
2019-05-09T15:55:40.819Z,96389.88
2019-05-09T15:59:47.861Z,96391.31
2019-05-09T16:03:52.316Z,96396.56
2019-05-09T16:07:58.555Z,96399.69
2019-05-09T16:12:03.567Z,96406.00
2019-05-09T16:16:09.022Z,96413.55
2019-05-09T16:20:14.183Z,96416.07
2019-05-09T16:24:19.160Z,96419.29
2019-05-09T16:28:24.057Z,96414.83
2019-05-09T16:32:28.947Z,96428.47
2019-05-09T16:36:33.842Z,96432.91
2019-05-09T16:40:38.883Z,96444.41
2019-05-09T16:44:43.710Z,96455.78
2019-05-09T16:48:48.616Z,96463.66
2019-05-09T16:52:53.510Z,96460.79
2019-05-09T16:57:00.009Z,96465.05
2019-05-09T17:01:05.188Z,96463.02
2019-05-09T17:05:10.336Z,96469.72
2019-05-09T17:09:15.237Z,96476.23
2019-05-09T17:13:20.125Z,96476.23
2019-05-09T17:17:25.024Z,96477.17
2019-05-09T17:21:40.810Z,96477.17
2019-05-09T17:25:47.910Z,96475.55
2019-05-09T17:29:52.295Z,96483.27
2019-05-09T17:33:57.889Z,96492.95
2019-05-09T17:38:03.016Z,96514.63
2019-05-09T17:42:07.910Z,96518.77
2019-05-09T17:46:12.818Z,96527.33
2019-05-09T17:50:18.585Z,96534.53
2019-05-09T17:54:23.626Z,96531.63
2019-05-09T17:58:32.927Z,96536.78
2019-05-09T18:02:35.115Z,96540.37
2019-05-09T18:06:40.003Z,96540.95
2019-05-09T18:10:44.896Z,96545.75
2019-05-09T18:14:49.873Z,96542.34
2019-05-09T18:18:58.527Z,96554.71
2019-05-09T18:23:03.368Z,96554.71
2019-05-09T18:27:08.998Z,96576.17
2019-05-09T18:31:13.889Z,96604.78
2019-05-09T18:35:20.589Z,96568.65
2019-05-09T18:39:27.680Z,96585.92
2019-05-09T18:43:32.068Z,96603.36
2019-05-09T18:47:36.965Z,96611.03
2019-05-09T18:51:41.871Z,96617.02
2019-05-09T18:55:46.771Z,96614.72
2019-05-09T18:59:51.679Z,96620.28
2019-05-09T19:03:56.582Z,96617.67
2019-05-09T19:08:01.476Z,96621.70
2019-05-09T19:12:06.578Z,96636.01
2019-05-09T19:16:27.920Z,96640.41
2019-05-09T19:20:40.657Z,96648.97
2019-05-09T19:24:45.542Z,96654.30
2019-05-09T19:28:50.434Z,96666.06
2019-05-09T19:32:55.336Z,96672.27
2019-05-09T19:37:00.241Z,96674.37
2019-05-09T19:41:05.134Z,96670.11
2019-05-09T19:45:10.572Z,96668.16
2019-05-09T19:49:15.533Z,96672.85
2019-05-09T19:53:20.430Z,96672.95
2019-05-09T19:57:25.333Z,96676.50
2019-05-09T20:01:30.232Z,96690.51
2019-05-09T20:05:35.127Z,96696.77
2019-05-09T20:09:44.558Z,96696.31
2019-05-09T20:13:57.097Z,96708.19
2019-05-09T20:18:01.995Z,96718.00
2019-05-09T20:22:06.891Z,96726.23
2019-05-09T20:26:11.796Z,96745.02
2019-05-09T20:30:17.884Z,96741.91
2019-05-09T20:34:22.831Z,96756.78
2019-05-09T20:38:27.875Z,96762.02
2019-05-09T20:42:32.953Z,96773.30
2019-05-09T20:46:38.037Z,96782.15
2019-05-09T20:50:44.584Z,96789.19
2019-05-09T20:54:49.895Z,96790.92
2019-05-09T20:58:54.973Z,96798.13
2019-05-09T21:03:00.046Z,96802.65
2019-05-09T21:07:05.124Z,96811.40
2019-05-09T21:11:10.217Z,96818.80
2019-05-09T21:15:15.421Z,96823.31
2019-05-09T21:19:20.516Z,96820.31
2019-05-09T21:23:25.585Z,96830.80
2019-05-09T21:27:30.664Z,96829.66
2019-05-09T21:31:35.738Z,96842.02
2019-05-09T21:35:41.708Z,96849.61
2019-05-09T21:39:46.611Z,96853.91
2019-05-09T21:43:51.508Z,96857.31
2019-05-09T21:47:56.401Z,96853.75
2019-05-09T21:52:01.290Z,96853.95
2019-05-09T21:56:06.201Z,96864.52
2019-05-09T22:00:16.956Z,96862.09
2019-05-09T22:04:23.451Z,96866.58
2019-05-09T22:08:28.414Z,96868.15
2019-05-09T22:12:33.322Z,96874.98
2019-05-09T22:16:38.207Z,96872.14
2019-05-09T22:20:43.109Z,96886.16
2019-05-09T22:24:48.006Z,96875.45
2019-05-09T22:28:53.975Z,96879.56
2019-05-09T22:32:58.865Z,96885.15
2019-05-09T22:37:03.778Z,96889.19
2019-05-09T22:41:08.663Z,96893.84
2019-05-09T22:45:14.200Z,96893.58
2019-05-09T22:49:19.097Z,96899.34
2019-05-09T22:53:23.988Z,96898.61
2019-05-09T22:57:28.876Z,96909.54
2019-05-09T23:01:33.778Z,96906.81
2019-05-09T23:05:38.669Z,96914.71
2019-05-09T23:09:43.568Z,96919.03
2019-05-09T23:13:54.481Z,96913.61
2019-05-09T23:17:59.357Z,96918.31
2019-05-09T23:22:04.826Z,96914.72
2019-05-09T23:26:10.701Z,96912.17
2019-05-09T23:30:15.832Z,96916.55
2019-05-09T23:34:20.727Z,96917.66
2019-05-09T23:38:25.608Z,96920.22
2019-05-09T23:42:30.507Z,96920.59
2019-05-09T23:46:35.412Z,96922.89
2019-05-09T23:50:40.311Z,96918.51
2019-05-09T23:55:03.436Z,96924.66
2019-05-09T23:59:27.334Z,96921.31
